createdAt,value
2019-04-06T00:00:22.404Z,40.30
2019-04-06T00:02:52.958Z,45.17
2019-04-06T00:05:23.265Z,45.73
2019-04-06T00:07:53.562Z,41.77
2019-04-06T00:10:23.828Z,43.27
2019-04-06T00:12:54.058Z,44.53
2019-04-06T00:15:24.442Z,45.83
2019-04-06T00:17:54.757Z,44.30
2019-04-06T00:20:25.066Z,44.77
2019-04-06T00:22:55.300Z,42.13
2019-04-06T00:25:25.710Z,46.47
2019-04-06T00:27:56.696Z,48.50
2019-04-06T00:30:28.550Z,40.97
2019-04-06T00:33:05.935Z,43.53
2019-04-06T00:35:36.401Z,42.90
2019-04-06T00:38:06.879Z,42.33
2019-04-06T00:40:37.135Z,45.60
2019-04-06T00:43:07.582Z,47.40
2019-04-06T00:45:38.095Z,42.70
2019-04-06T00:48:08.541Z,43.43
2019-04-06T00:50:40.429Z,43.33
2019-04-06T00:53:10.699Z,42.00
2019-04-06T00:55:42.844Z,39.80
2019-04-06T00:58:13.370Z,42.27
2019-04-06T01:00:43.643Z,44.57
2019-04-06T01:03:14.227Z,44.93
2019-04-06T01:05:44.618Z,44.77
2019-04-06T01:08:14.887Z,37.47
2019-04-06T01:10:45.246Z,41.27
2019-04-06T01:13:15.541Z,42.30
2019-04-06T01:15:45.877Z,44.33
2019-04-06T01:18:16.214Z,41.23
2019-04-06T01:20:46.600Z,39.97
2019-04-06T01:23:18.024Z,41.93
2019-04-06T01:25:48.600Z,42.77
2019-04-06T01:28:19.099Z,43.10
2019-04-06T01:30:49.495Z,43.90
2019-04-06T01:33:19.804Z,40.50
2019-04-06T01:35:50.184Z,44.63
2019-04-06T01:38:20.474Z,38.90
2019-04-06T01:40:50.747Z,42.37
2019-04-06T01:43:21.007Z,49.57
2019-04-06T01:45:51.257Z,49.80
2019-04-06T01:48:21.516Z,43.50
2019-04-06T01:50:52.062Z,48.77
2019-04-06T01:53:23.414Z,44.57
2019-04-06T01:55:53.618Z,43.73
2019-04-06T01:58:23.873Z,46.37
2019-04-06T02:01:10.811Z,50.17
2019-04-06T02:03:41.208Z,44.40
2019-04-06T02:06:11.472Z,46.73
2019-04-06T02:08:41.839Z,40.97
2019-04-06T02:11:12.156Z,46.67
2019-04-06T02:13:43.544Z,46.10
2019-04-06T02:16:13.908Z,43.07
2019-04-06T02:18:44.312Z,43.77
2019-04-06T02:21:14.876Z,45.97
2019-04-06T02:23:45.131Z,45.03
2019-04-06T02:26:17.260Z,46.30
2019-04-06T02:28:48.020Z,46.97
2019-04-06T02:31:45.958Z,44.37
2019-04-06T02:34:34.047Z,44.40
2019-04-06T02:37:17.066Z,45.63
2019-04-06T02:40:07.796Z,48.97
2019-04-06T02:42:42.049Z,45.27
2019-04-06T02:45:12.462Z,40.80
2019-04-06T02:47:42.806Z,52.07
2019-04-06T02:50:13.343Z,46.63
2019-04-06T02:52:43.634Z,44.50
2019-04-06T02:55:14.215Z,44.20
2019-04-06T02:57:44.606Z,40.80
2019-04-06T03:00:16.039Z,43.23
2019-04-06T03:02:47.158Z,44.07
2019-04-06T03:05:17.710Z,45.13
2019-04-06T03:07:47.931Z,43.07
2019-04-06T03:10:18.663Z,46.33
2019-04-06T03:12:48.921Z,44.47
2019-04-06T03:15:19.191Z,43.20
2019-04-06T03:17:49.409Z,45.40
2019-04-06T03:20:19.763Z,46.30
2019-04-06T03:22:50.027Z,41.00
2019-04-06T03:25:20.836Z,41.93
2019-04-06T03:27:51.178Z,47.27
2019-04-06T03:30:21.709Z,42.60
2019-04-06T03:32:51.935Z,43.07
2019-04-06T03:35:22.708Z,39.93
2019-04-06T03:37:53.033Z,41.87
2019-04-06T03:40:23.626Z,41.07
2019-04-06T03:42:55.161Z,42.50
2019-04-06T03:45:25.546Z,45.17
2019-04-06T03:47:55.937Z,41.57
2019-04-06T03:50:26.269Z,42.60
2019-04-06T03:52:56.530Z,40.93
2019-04-06T03:55:26.752Z,44.47
2019-04-06T03:57:57.015Z,44.53
2019-04-06T04:00:27.272Z,45.50
2019-04-06T04:02:57.592Z,45.90
2019-04-06T04:05:27.836Z,42.33
2019-04-06T04:07:58.084Z,43.00
2019-04-06T04:10:36.079Z,45.13
2019-04-06T04:13:06.657Z,45.37
2019-04-06T04:15:36.986Z,40.60
2019-04-06T04:18:07.322Z,42.97
2019-04-06T04:20:37.543Z,44.70
2019-04-06T04:23:08.991Z,45.20
2019-04-06T04:25:39.210Z,48.70
2019-04-06T04:28:09.477Z,48.17
2019-04-06T04:30:39.927Z,52.07
2019-04-06T04:33:10.367Z,48.23
2019-04-06T04:35:40.622Z,46.37
2019-04-06T04:38:10.940Z,48.07
2019-04-06T04:40:42.740Z,47.83
2019-04-06T04:43:12.995Z,51.30
2019-04-06T04:45:43.203Z,52.63
2019-04-06T04:48:13.515Z,62.63
2019-04-06T04:50:43.830Z,64.80
2019-04-06T04:53:14.179Z,62.20
2019-04-06T04:55:44.525Z,67.43
2019-04-06T04:58:14.982Z,59.37
2019-04-06T05:00:45.463Z,64.53
2019-04-06T05:03:15.770Z,56.57
2019-04-06T05:05:46.042Z,57.37
2019-04-06T05:08:28.489Z,60.70
2019-04-06T05:10:58.801Z,58.43
2019-04-06T05:13:31.229Z,59.70
2019-04-06T05:16:18.796Z,53.97
2019-04-06T05:18:49.541Z,54.40
2019-04-06T05:21:19.797Z,55.67
2019-04-06T05:23:50.091Z,55.20
2019-04-06T05:26:20.348Z,53.40
2019-04-06T05:28:50.571Z,51.77
2019-04-06T05:31:20.870Z,51.20
2019-04-06T05:33:51.211Z,50.83
2019-04-06T05:36:21.486Z,51.00
2019-04-06T05:38:51.878Z,48.87
2019-04-06T05:41:22.200Z,53.57
2019-04-06T05:43:52.511Z,49.50
2019-04-06T05:46:22.967Z,48.23
2019-04-06T05:48:53.179Z,49.70
2019-04-06T05:51:23.455Z,46.27
2019-04-06T05:53:54.377Z,47.37
2019-04-06T05:56:24.670Z,45.93
2019-04-06T05:58:54.894Z,46.27
2019-04-06T06:01:25.369Z,45.97
2019-04-06T06:03:55.790Z,45.53
2019-04-06T06:06:26.145Z,44.50
2019-04-06T06:08:56.613Z,49.27
2019-04-06T06:11:26.994Z,48.13
2019-04-06T06:13:57.235Z,47.83
2019-04-06T06:16:27.660Z,45.67
2019-04-06T06:18:58.100Z,47.30
2019-04-06T06:21:28.952Z,47.03
2019-04-06T06:23:59.412Z,46.00
2019-04-06T06:26:30.011Z,44.10
2019-04-06T06:29:00.484Z,41.90
2019-04-06T06:31:30.795Z,44.73
2019-04-06T06:34:01.051Z,45.13
2019-04-06T06:36:31.424Z,43.97
2019-04-06T06:39:05.118Z,47.03
2019-04-06T06:41:37.487Z,42.37
2019-04-06T06:44:08.057Z,42.30
2019-04-06T06:46:39.906Z,42.23
2019-04-06T06:49:10.155Z,42.03
2019-04-06T06:51:40.546Z,40.03
2019-04-06T06:54:10.822Z,40.93
2019-04-06T06:56:41.412Z,40.93
2019-04-06T06:59:11.750Z,38.67
2019-04-06T07:01:42.550Z,38.83
2019-04-06T07:04:12.990Z,38.93
2019-04-06T07:06:43.452Z,38.23
2019-04-06T07:09:13.978Z,37.37
2019-04-06T07:11:44.255Z,40.23
2019-04-06T07:14:14.561Z,38.50
2019-04-06T07:16:45.757Z,36.47
2019-04-06T07:19:16.262Z,39.13
2019-04-06T07:21:46.600Z,36.07
2019-04-06T07:24:16.891Z,36.93
2019-04-06T07:26:47.775Z,36.83
2019-04-06T07:29:18.003Z,41.03
2019-04-06T07:31:48.368Z,40.20
2019-04-06T07:34:18.937Z,36.77
2019-04-06T07:36:49.269Z,38.70
2019-04-06T07:39:19.644Z,39.77
2019-04-06T07:41:49.867Z,38.63
2019-04-06T07:44:20.174Z,38.63
2019-04-06T07:46:50.468Z,43.67
2019-04-06T07:49:21.240Z,40.93
2019-04-06T07:51:51.704Z,39.60
2019-04-06T07:54:21.971Z,38.43
2019-04-06T07:56:52.292Z,40.23
2019-04-06T07:59:22.522Z,40.43
2019-04-06T08:01:52.830Z,38.40
2019-04-06T08:04:23.062Z,39.43
2019-04-06T08:06:53.584Z,39.90
2019-04-06T08:09:24.496Z,39.80
2019-04-06T08:11:54.875Z,38.57
2019-04-06T08:14:25.173Z,38.33
2019-04-06T08:16:55.509Z,37.40
2019-04-06T08:19:25.914Z,37.63
2019-04-06T08:21:57.297Z,36.53
2019-04-06T08:24:27.554Z,35.33
2019-04-06T08:26:57.887Z,35.30
2019-04-06T08:29:28.242Z,37.03
2019-04-06T08:31:58.578Z,36.03
2019-04-06T08:34:29.054Z,38.50
2019-04-06T08:36:59.441Z,36.13
2019-04-06T08:39:30.003Z,35.37
2019-04-06T08:42:00.515Z,35.03
2019-04-06T08:44:31.169Z,34.53
2019-04-06T08:47:01.609Z,33.00
2019-04-06T08:49:32.026Z,28.60
2019-04-06T08:52:02.668Z,30.90
2019-04-06T08:54:33.045Z,29.40
2019-04-06T08:57:03.686Z,32.43
2019-04-06T08:59:34.171Z,32.47
2019-04-06T09:02:04.685Z,31.13
2019-04-06T09:04:35.212Z,33.77
2019-04-06T09:07:05.647Z,32.50
2019-04-06T09:09:36.063Z,35.63
2019-04-06T09:12:06.385Z,32.40
2019-04-06T09:14:36.692Z,31.73
2019-04-06T09:17:07.348Z,32.83
2019-04-06T09:19:37.975Z,35.20
2019-04-06T09:22:08.389Z,33.23
2019-04-06T09:24:38.723Z,31.67
2019-04-06T09:27:10.649Z,32.63
2019-04-06T09:29:41.065Z,33.67
2019-04-06T09:32:12.440Z,32.50
2019-04-06T09:34:42.719Z,32.23
2019-04-06T09:37:13.078Z,30.93
2019-04-06T09:39:43.634Z,32.67
2019-04-06T09:42:15.892Z,33.27
2019-04-06T09:45:08.155Z,31.83
2019-04-06T09:48:03.465Z,31.40
2019-04-06T09:50:51.376Z,32.00
2019-04-06T09:54:04.558Z,30.87
2019-04-06T09:56:32.595Z,30.60
2019-04-06T09:59:34.267Z,33.17
2019-04-06T10:02:31.799Z,30.40
2019-04-06T10:05:22.114Z,29.53
2019-04-06T10:08:11.273Z,27.73
2019-04-06T10:10:59.214Z,29.30
2019-04-06T10:13:38.294Z,32.57
2019-04-06T10:16:26.062Z,33.20
2019-04-06T10:19:24.701Z,27.93
2019-04-06T10:22:16.854Z,27.93
2019-04-06T10:25:11.012Z,29.20
2019-04-06T10:28:03.337Z,28.77
2019-04-06T10:30:55.985Z,24.50
2019-04-06T10:33:44.282Z,27.63
2019-04-06T10:36:32.623Z,27.03
2019-04-06T10:39:14.837Z,27.87
2019-04-06T10:42:05.248Z,27.30
2019-04-06T10:45:01.738Z,24.80
2019-04-06T10:47:52.851Z,25.17
2019-04-06T10:50:30.884Z,28.20
2019-04-06T10:53:29.445Z,24.17
2019-04-06T10:56:14.805Z,27.83
2019-04-06T10:59:06.822Z,26.03
2019-04-06T11:01:51.955Z,27.07
2019-04-06T11:04:26.705Z,26.63
2019-04-06T11:07:18.904Z,25.47
2019-04-06T11:10:11.128Z,27.40
2019-04-06T11:13:00.425Z,24.90
2019-04-06T11:15:59.083Z,24.93
2019-04-06T11:18:47.177Z,24.60
2019-04-06T11:21:42.967Z,25.70
2019-04-06T11:24:30.399Z,23.60
2019-04-06T11:27:19.775Z,23.10
2019-04-06T11:30:25.179Z,27.13
2019-04-06T11:33:17.292Z,24.03
2019-04-06T11:36:07.630Z,23.43
2019-04-06T11:38:56.041Z,22.83
2019-04-06T11:41:58.134Z,24.87
2019-04-06T11:44:40.703Z,25.63
2019-04-06T11:47:40.722Z,25.27
2019-04-06T11:50:39.443Z,24.87
2019-04-06T11:53:26.880Z,25.63
2019-04-06T11:56:01.478Z,25.63
2019-04-06T11:58:50.845Z,24.70
2019-04-06T12:01:39.080Z,23.70
2019-04-06T12:04:31.426Z,23.33
2019-04-06T12:07:19.284Z,23.00
2019-04-06T12:10:07.232Z,22.53
2019-04-06T12:13:05.541Z,22.60
2019-04-06T12:15:53.729Z,24.60
2019-04-06T12:18:41.676Z,24.20
2019-04-06T12:21:34.050Z,24.67
2019-04-06T12:24:35.218Z,25.57
2019-04-06T12:27:27.525Z,22.67
2019-04-06T12:30:24.543Z,23.27
2019-04-06T12:33:14.036Z,22.57
2019-04-06T12:36:08.196Z,23.07
2019-04-06T12:39:09.709Z,23.07
2019-04-06T12:41:56.035Z,23.07
2019-04-06T12:44:48.636Z,23.57
2019-04-06T12:47:42.153Z,22.40
2019-04-06T12:50:29.635Z,23.07
2019-04-06T12:53:18.028Z,22.77
2019-04-06T12:56:22.627Z,23.20
2019-04-06T12:59:15.002Z,21.70
2019-04-06T13:02:10.735Z,22.40
2019-04-06T13:05:03.315Z,23.03
2019-04-06T13:07:52.239Z,20.87
2019-04-06T13:10:35.972Z,22.63
2019-04-06T13:13:18.575Z,26.60
2019-04-06T13:16:10.970Z,21.67
2019-04-06T13:19:09.579Z,20.43
2019-04-06T13:21:56.809Z,27.03
2019-04-06T13:25:01.523Z,20.43
2019-04-06T13:27:50.230Z,22.00
2019-04-06T13:30:39.526Z,21.60
2019-04-06T13:33:38.211Z,20.23
2019-04-06T13:36:14.859Z,20.67
2019-04-06T13:39:07.953Z,21.87
2019-04-06T13:42:09.527Z,21.23
2019-04-06T13:44:57.310Z,20.33
2019-04-06T13:47:52.710Z,20.43
2019-04-06T13:50:28.745Z,19.50
2019-04-06T13:53:09.032Z,17.93
2019-04-06T13:55:52.893Z,20.03
2019-04-06T13:58:46.016Z,19.63
2019-04-06T14:01:53.835Z,18.80
2019-04-06T14:04:45.935Z,21.33
2019-04-06T14:07:28.024Z,20.93
2019-04-06T14:10:20.059Z,19.47
2019-04-06T14:13:15.771Z,20.27
2019-04-06T14:16:04.981Z,18.83
2019-04-06T14:19:06.302Z,20.43
2019-04-06T14:21:55.513Z,19.43
2019-04-06T14:24:43.320Z,25.77
2019-04-06T14:27:35.386Z,19.80
2019-04-06T14:30:28.977Z,18.73
2019-04-06T14:33:22.835Z,19.97
2019-04-06T14:36:18.935Z,18.37
2019-04-06T14:39:17.402Z,19.77
2019-04-06T14:42:06.143Z,18.80
2019-04-06T14:44:53.850Z,18.73
2019-04-06T14:48:05.835Z,19.03
2019-04-06T14:50:48.107Z,18.53
2019-04-06T14:53:37.410Z,17.33
2019-04-06T14:56:17.675Z,18.80
2019-04-06T14:59:06.982Z,19.87
2019-04-06T15:02:02.214Z,22.20
2019-04-06T15:04:50.271Z,20.37
2019-04-06T15:07:39.411Z,22.93
2019-04-06T15:10:28.782Z,20.50
2019-04-06T15:13:24.386Z,19.90
2019-04-06T15:16:14.454Z,19.17
2019-04-06T15:19:02.620Z,18.57
2019-04-06T15:21:55.002Z,19.30
2019-04-06T15:24:53.073Z,19.20
2019-04-06T15:28:00.703Z,18.33
2019-04-06T15:30:37.659Z,18.67
2019-04-06T15:33:39.147Z,17.67
2019-04-06T15:36:31.246Z,19.20
2019-04-06T15:39:10.475Z,16.77
2019-04-06T15:42:12.106Z,19.23
2019-04-06T15:45:13.457Z,18.10
2019-04-06T15:47:54.883Z,18.73
2019-04-06T15:50:47.130Z,20.13
2019-04-06T15:53:36.424Z,18.73
2019-04-06T15:56:25.699Z,18.13
2019-04-06T15:59:21.193Z,18.67
2019-04-06T16:02:12.980Z,17.23
2019-04-06T16:05:06.776Z,18.50
2019-04-06T16:07:46.434Z,19.83
2019-04-06T16:10:36.885Z,18.47
2019-04-06T16:13:26.222Z,17.33
2019-04-06T16:16:15.609Z,18.37
2019-04-06T16:19:17.539Z,19.00
2019-04-06T16:22:04.717Z,17.87
2019-04-06T16:24:42.760Z,16.87
2019-04-06T16:27:32.085Z,17.40
2019-04-06T16:30:27.137Z,17.37
2019-04-06T16:33:19.503Z,18.10
2019-04-06T16:35:55.946Z,16.87
2019-04-06T16:38:48.283Z,17.37
2019-04-06T16:41:43.338Z,16.80
2019-04-06T16:44:31.462Z,16.67
2019-04-06T16:47:19.529Z,19.17
2019-04-06T16:50:07.611Z,17.17
2019-04-06T16:52:59.912Z,16.27
2019-04-06T16:55:58.603Z,17.37
2019-04-06T16:58:50.719Z,17.00
2019-04-06T17:01:43.783Z,16.80
2019-04-06T17:04:31.518Z,16.10
2019-04-06T17:07:07.134Z,17.30
2019-04-06T17:09:59.306Z,16.97
2019-04-06T17:12:39.421Z,16.63
2019-04-06T17:15:47.146Z,15.60
2019-04-06T17:18:40.901Z,15.20
2019-04-06T17:21:24.303Z,15.60
2019-04-06T17:24:10.189Z,16.40
2019-04-06T17:26:52.603Z,16.30
2019-04-06T17:29:40.657Z,17.03
2019-04-06T17:32:35.447Z,16.83
2019-04-06T17:35:10.479Z,17.20
2019-04-06T17:37:56.032Z,18.00
2019-04-06T17:40:54.710Z,18.30
2019-04-06T17:43:52.952Z,16.20
2019-04-06T17:46:42.414Z,16.73
2019-04-06T17:49:41.847Z,20.10
2019-04-06T17:52:49.495Z,26.90
2019-04-06T17:55:31.581Z,22.30
2019-04-06T17:58:19.737Z,26.30
2019-04-06T18:01:00.036Z,22.77
2019-04-06T18:03:48.593Z,20.93
2019-04-06T18:06:27.740Z,21.63
2019-04-06T18:09:26.367Z,20.03
2019-04-06T18:12:38.266Z,18.33
2019-04-06T18:15:11.968Z,21.17
2019-04-06T18:17:42.393Z,18.27
2019-04-06T18:20:13.292Z,17.27
2019-04-06T18:22:43.832Z,15.93
2019-04-06T18:25:14.537Z,18.60
2019-04-06T18:27:45.083Z,16.87
2019-04-06T18:30:15.869Z,17.67
2019-04-06T18:32:59.956Z,18.17
2019-04-06T18:35:24.596Z,22.60
2019-04-06T18:38:09.485Z,23.63
2019-04-06T18:40:40.329Z,25.55
2019-04-06T18:43:10.747Z,23.93
2019-04-06T18:45:41.455Z,22.13
2019-04-06T18:48:11.903Z,21.40
2019-04-06T18:50:42.319Z,21.80
2019-04-06T18:53:12.615Z,21.30
2019-04-06T18:55:43.399Z,21.80
2019-04-06T18:58:14.310Z,19.60
2019-04-06T19:00:44.762Z,19.87
2019-04-06T19:03:16.674Z,20.93
2019-04-06T19:05:47.149Z,19.23
2019-04-06T19:08:17.602Z,23.33
2019-04-06T19:10:47.918Z,26.43
2019-04-06T19:13:18.317Z,24.23
2019-04-06T19:15:50.249Z,23.13
2019-04-06T19:18:20.609Z,23.17
2019-04-06T19:20:50.997Z,24.07
2019-04-06T19:23:21.376Z,24.40
2019-04-06T19:25:51.726Z,21.33
2019-04-06T19:28:22.169Z,24.87
2019-04-06T19:30:52.770Z,22.30
2019-04-06T19:33:25.849Z,23.97
2019-04-06T19:35:55.767Z,19.63
2019-04-06T19:38:26.055Z,21.27
2019-04-06T19:40:56.889Z,21.77
2019-04-06T19:43:27.437Z,20.80
2019-04-06T19:45:57.982Z,21.47
2019-04-06T19:48:28.592Z,20.63
2019-04-06T19:51:00.076Z,20.90
2019-04-06T19:53:30.518Z,21.17
2019-04-06T19:56:01.221Z,21.37
2019-04-06T19:58:31.720Z,20.57
2019-04-06T20:01:02.184Z,22.17
2019-04-06T20:03:36.077Z,23.37
2019-04-06T20:06:05.012Z,24.20
2019-04-06T20:08:35.467Z,23.40
2019-04-06T20:11:05.750Z,22.90
2019-04-06T20:13:36.198Z,22.10
2019-04-06T20:16:06.587Z,22.17
2019-04-06T20:18:37.002Z,22.63
2019-04-06T20:21:07.485Z,21.43
2019-04-06T20:23:38.116Z,21.97
2019-04-06T20:26:08.416Z,22.37
2019-04-06T20:28:39.023Z,22.27
2019-04-06T20:31:09.419Z,23.20
2019-04-06T20:33:48.167Z,23.23
2019-04-06T20:36:11.735Z,21.83
2019-04-06T20:38:42.358Z,20.87
2019-04-06T20:41:13.212Z,20.97
2019-04-06T20:43:44.322Z,20.63
2019-04-06T20:46:15.200Z,21.80
2019-04-06T20:48:45.852Z,21.87
2019-04-06T20:51:16.370Z,22.00
2019-04-06T20:53:46.673Z,21.90
2019-04-06T20:56:17.827Z,22.23
2019-04-06T20:58:48.320Z,23.50
2019-04-06T21:01:18.771Z,23.60
2019-04-06T21:03:59.222Z,23.80
2019-04-06T21:06:21.698Z,22.67
2019-04-06T21:08:52.518Z,23.83
2019-04-06T21:11:23.292Z,25.07
2019-04-06T21:13:53.912Z,25.13
2019-04-06T21:16:26.431Z,23.83
2019-04-06T21:18:57.427Z,25.07
2019-04-06T21:21:27.870Z,27.30
2019-04-06T21:23:58.157Z,22.67
2019-04-06T21:26:29.002Z,22.90
2019-04-06T21:28:59.519Z,24.50
2019-04-06T21:31:29.871Z,23.77
2019-04-06T21:34:09.677Z,22.67
2019-04-06T21:36:32.364Z,23.47
2019-04-06T21:39:05.496Z,23.90
2019-04-06T21:41:35.847Z,23.33
2019-04-06T21:44:07.549Z,24.03
2019-04-06T21:46:38.074Z,24.83
2019-04-06T21:49:08.807Z,26.10
2019-04-06T21:51:39.167Z,27.17
2019-04-06T21:54:09.503Z,25.83
2019-04-06T21:56:40.030Z,26.33
2019-04-06T21:59:11.120Z,26.27
2019-04-06T22:01:42.370Z,24.90
2019-04-06T22:04:23.032Z,25.00
2019-04-06T22:06:45.119Z,24.90
2019-04-06T22:09:34.411Z,26.10
2019-04-06T22:12:04.935Z,24.53
2019-04-06T22:14:35.185Z,27.87
2019-04-06T22:17:06.234Z,26.00
2019-04-06T22:19:36.992Z,25.27
2019-04-06T22:22:07.420Z,24.83
2019-04-06T22:24:37.705Z,25.47
2019-04-06T22:27:07.977Z,26.87
2019-04-06T22:29:41.366Z,25.83
2019-04-06T22:32:11.916Z,29.20
2019-04-06T22:34:43.814Z,25.27
2019-04-06T22:37:14.229Z,29.67
2019-04-06T22:39:44.522Z,26.13
2019-04-06T22:42:14.785Z,25.93
2019-04-06T22:44:45.225Z,26.20
2019-04-06T22:47:15.498Z,25.60
2019-04-06T22:49:45.808Z,26.70
2019-04-06T22:52:16.222Z,27.23
2019-04-06T22:54:46.498Z,26.80
2019-04-06T22:57:16.973Z,27.80
2019-04-06T22:59:47.234Z,28.40
2019-04-06T23:02:17.587Z,29.20
2019-04-06T23:05:21.965Z,28.37
2019-04-06T23:07:53.356Z,29.07
2019-04-06T23:10:23.833Z,28.00
2019-04-06T23:12:54.186Z,27.63
2019-04-06T23:15:24.571Z,29.73
2019-04-06T23:17:55.454Z,28.37
2019-04-06T23:20:25.935Z,28.07
2019-04-06T23:22:56.186Z,32.43
2019-04-06T23:25:26.807Z,30.20
2019-04-06T23:27:58.290Z,28.90
2019-04-06T23:30:29.186Z,28.20
2019-04-06T23:32:59.579Z,31.53
2019-04-06T23:35:30.007Z,29.27
2019-04-06T23:38:00.720Z,28.73
2019-04-06T23:40:31.246Z,28.77
2019-04-06T23:43:01.806Z,30.60
2019-04-06T23:45:32.078Z,31.83
2019-04-06T23:48:02.769Z,29.60
2019-04-06T23:50:33.194Z,31.83
2019-04-06T23:53:04.242Z,33.03
2019-04-06T23:55:35.385Z,29.37
2019-04-06T23:58:05.743Z,32.77
